Decoded Metar for LDZD (ZADAR in CROATIA) (IATA:ZAD) | Meteo·Mobile Aviation Weather
aviador You're here:

LDZD Decoded Metar

ZADAR in CROATIA
Report Time2019-04-23 08:00:00
UTC Time2019-04-23 08:23:42
Flight Rules vfr VFR
Wind130° at 17 kt
W.Decomp.*RWY 14: 16.6 kt HW 3.5 kt LCW
RWY 04: 0.6 kt HW 17.0 kt RCW
Visibility9999 m
Phenomena:N/A
Clouds:Few 027 Hf
Broken 035 Hf
Expected CloudBase > 2,800 ft AGL from Temp-Dew spread
Ceiling3,500 ft
Temp16°C (ISA +2)
Dew Point09°C (63% RH)
AAT9.6°C
QNH1008 hPa
Density Alt784 ft
Elevation276 ft
Report Wrong Elevation
Raw Report
LDZD 230800Z 13017KT 100V160 9999 FEW027 BKN035 16/09 Q1008 TEMPO
14018G28KT=

Extra information for LDZD:More info

Metar Taf Metar & Taf Last 4 Metars F.Rules Stats Wind Profile Meteogram Temp Stats Airport Information Weather charts Add Link Nearby VenuesMetar ALERT Operation Metar Decoded Social comments